createdAt,value
2023-04-30T00:00:37.463Z,100.00
2023-04-30T00:03:05.497Z,100.00
2023-04-30T00:05:33.674Z,100.00
2023-04-30T00:08:01.767Z,100.00
2023-04-30T00:10:31.587Z,100.00
2023-04-30T00:13:01.280Z,100.00
2023-04-30T00:15:29.896Z,100.00
2023-04-30T00:17:57.582Z,100.00
2023-04-30T00:20:25.424Z,100.00
2023-04-30T00:22:53.441Z,100.00
2023-04-30T00:25:24.524Z,100.00
2023-04-30T00:27:52.370Z,100.00
2023-04-30T00:30:21.710Z,100.00
2023-04-30T00:32:49.727Z,100.00
2023-04-30T00:35:17.771Z,100.00
2023-04-30T00:37:45.803Z,100.00
2023-04-30T00:40:14.805Z,100.00
2023-04-30T00:42:42.616Z,100.00
2023-04-30T00:45:11.822Z,100.00
2023-04-30T00:47:41.263Z,100.00
2023-04-30T00:50:09.804Z,100.00
2023-04-30T00:52:37.654Z,100.00
2023-04-30T00:55:05.957Z,100.00
2023-04-30T00:57:35.590Z,100.00
2023-04-30T01:00:03.905Z,100.00
2023-04-30T01:02:32.700Z,100.00
2023-04-30T01:05:02.682Z,100.00
2023-04-30T01:07:31.302Z,100.00
2023-04-30T01:09:59.113Z,100.00
2023-04-30T01:12:30.455Z,100.00
2023-04-30T01:15:01.694Z,100.00
2023-04-30T01:17:33.783Z,100.00
2023-04-30T01:20:04.213Z,100.00
2023-04-30T01:22:42.007Z,100.00
2023-04-30T01:25:22.448Z,100.00
2023-04-30T01:28:05.487Z,100.00
2023-04-30T01:30:34.629Z,100.00
2023-04-30T01:33:03.065Z,100.00
2023-04-30T01:35:47.572Z,100.00
2023-04-30T01:38:23.662Z,100.00
2023-04-30T01:40:55.210Z,100.00
2023-04-30T01:43:29.873Z,100.00
2023-04-30T01:46:02.802Z,100.00
2023-04-30T01:48:36.366Z,100.00
2023-04-30T01:51:09.961Z,100.00
2023-04-30T01:53:41.657Z,100.00
2023-04-30T01:56:12.419Z,100.00
2023-04-30T01:58:41.973Z,100.00
2023-04-30T02:01:26.534Z,100.00
2023-04-30T02:03:54.796Z,100.00
2023-04-30T02:06:22.837Z,100.00
2023-04-30T02:08:50.722Z,100.00
2023-04-30T02:11:18.545Z,100.00
2023-04-30T02:13:47.799Z,100.00
2023-04-30T02:16:16.031Z,100.00
2023-04-30T02:18:43.679Z,100.00
2023-04-30T02:21:11.827Z,100.00
2023-04-30T02:23:39.667Z,100.00
2023-04-30T02:26:09.087Z,100.00
2023-04-30T02:28:37.478Z,100.00
2023-04-30T02:31:07.493Z,100.00
2023-04-30T02:33:35.813Z,100.00
2023-04-30T02:36:03.694Z,100.00
2023-04-30T02:38:31.417Z,100.00
2023-04-30T02:40:59.257Z,100.00
2023-04-30T02:43:27.359Z,100.00
2023-04-30T02:45:55.231Z,100.00
2023-04-30T02:48:24.696Z,100.00
2023-04-30T02:50:53.112Z,100.00
2023-04-30T02:53:21.343Z,100.00
2023-04-30T02:55:49.197Z,100.00
2023-04-30T02:58:17.354Z,100.00
2023-04-30T03:00:45.276Z,100.00
2023-04-30T03:03:16.497Z,100.00
2023-04-30T03:05:47.264Z,100.00
2023-04-30T03:08:16.871Z,100.00
2023-04-30T03:10:44.956Z,100.00
2023-04-30T03:13:13.131Z,100.00
2023-04-30T03:15:41.948Z,100.00
2023-04-30T03:18:10.138Z,100.00
2023-04-30T03:20:39.625Z,100.00
2023-04-30T03:23:09.190Z,100.00
2023-04-30T03:25:37.577Z,100.00
2023-04-30T03:28:06.854Z,100.00
2023-04-30T03:30:35.228Z,100.00
2023-04-30T03:33:03.690Z,100.00
2023-04-30T03:35:31.900Z,100.00
2023-04-30T03:38:00.087Z,100.00
2023-04-30T03:40:30.339Z,100.00
2023-04-30T03:42:59.013Z,100.00
2023-04-30T03:45:27.495Z,100.00
2023-04-30T03:47:56.500Z,100.00
2023-04-30T03:50:24.791Z,100.00
2023-04-30T03:52:53.054Z,100.00
2023-04-30T03:55:20.961Z,100.00
2023-04-30T03:57:50.657Z,100.00
2023-04-30T04:00:22.039Z,100.00
2023-04-30T04:02:53.735Z,100.00
2023-04-30T04:05:22.179Z,100.00
2023-04-30T04:07:50.240Z,100.00
2023-04-30T04:10:19.501Z,100.00
2023-04-30T04:12:48.656Z,100.00
2023-04-30T04:15:21.463Z,100.00
2023-04-30T04:17:49.907Z,100.00
2023-04-30T04:20:18.602Z,100.00
2023-04-30T04:22:46.954Z,100.00
2023-04-30T04:25:15.302Z,100.00
2023-04-30T04:27:45.405Z,100.00
2023-04-30T04:30:14.257Z,100.00
2023-04-30T04:32:50.188Z,100.00
2023-04-30T04:35:21.049Z,100.00
2023-04-30T04:37:49.526Z,100.00
2023-04-30T04:40:19.025Z,100.00
2023-04-30T04:42:47.663Z,100.00
2023-04-30T04:45:16.432Z,100.00
2023-04-30T04:47:47.002Z,100.00
2023-04-30T04:50:15.958Z,100.00
2023-04-30T04:52:43.873Z,100.00
2023-04-30T04:55:12.657Z,100.00
2023-04-30T04:57:42.171Z,100.00
2023-04-30T05:00:12.674Z,100.00
2023-04-30T05:02:40.836Z,100.00
2023-04-30T05:05:11.879Z,100.00
2023-04-30T05:07:40.226Z,100.00
2023-04-30T05:10:10.265Z,100.00
2023-04-30T05:12:39.317Z,100.00
2023-04-30T05:15:07.684Z,100.00
2023-04-30T05:17:36.205Z,100.00
2023-04-30T05:20:05.149Z,100.00
2023-04-30T05:22:34.953Z,100.00
2023-04-30T05:25:03.826Z,100.00
2023-04-30T05:27:32.365Z,100.00
2023-04-30T05:30:03.131Z,100.00
2023-04-30T05:32:31.614Z,100.00
2023-04-30T05:35:00.023Z,100.00
2023-04-30T05:37:29.211Z,100.00
2023-04-30T05:39:59.123Z,100.00
2023-04-30T05:42:27.731Z,100.00
2023-04-30T05:44:56.563Z,100.00
2023-04-30T05:47:25.142Z,100.00
2023-04-30T05:49:53.683Z,100.00
2023-04-30T05:52:22.280Z,100.00
2023-04-30T05:54:50.955Z,100.00
2023-04-30T05:57:22.795Z,100.00
2023-04-30T05:59:50.984Z,100.00
2023-04-30T06:02:19.855Z,100.00
2023-04-30T06:04:48.942Z,100.00
2023-04-30T06:07:17.838Z,100.00
2023-04-30T06:09:46.379Z,100.00
2023-04-30T06:12:15.019Z,100.00
2023-04-30T06:14:46.086Z,100.00
2023-04-30T06:17:15.168Z,100.00
2023-04-30T06:19:43.550Z,100.00
2023-04-30T06:22:12.390Z,100.00
2023-04-30T06:24:41.068Z,100.00
2023-04-30T06:27:10.224Z,100.00
2023-04-30T06:29:38.568Z,100.00
2023-04-30T06:32:08.818Z,100.00
2023-04-30T06:34:37.245Z,100.00
2023-04-30T06:37:05.533Z,100.00
2023-04-30T06:39:34.108Z,100.00
2023-04-30T06:42:02.425Z,100.00
2023-04-30T06:44:30.771Z,100.00
2023-04-30T06:46:59.677Z,100.00
2023-04-30T06:49:29.453Z,100.00
2023-04-30T06:51:58.581Z,100.00
2023-04-30T06:54:27.987Z,100.00
2023-04-30T06:56:55.816Z,100.00
2023-04-30T06:59:23.745Z,100.00
2023-04-30T07:01:51.717Z,100.00
2023-04-30T07:04:20.173Z,95.50
2023-04-30T07:06:51.039Z,89.44
2023-04-30T07:09:21.623Z,91.42
2023-04-30T07:11:50.429Z,93.07
2023-04-30T07:14:18.593Z,98.34
2023-04-30T07:16:46.462Z,84.67
2023-04-30T07:19:15.802Z,86.56
2023-04-30T07:21:46.174Z,80.36
2023-04-30T07:24:15.754Z,82.02
2023-04-30T07:26:44.089Z,84.20
2023-04-30T07:29:12.061Z,77.67
2023-04-30T07:31:39.928Z,67.98
2023-04-30T07:34:09.064Z,71.54
2023-04-30T07:36:38.489Z,74.23
2023-04-30T07:39:06.715Z,72.05
2023-04-30T07:41:36.559Z,74.18
2023-04-30T07:44:04.597Z,71.86
2023-04-30T07:46:32.584Z,73.01
2023-04-30T07:49:00.999Z,73.92
2023-04-30T07:51:29.461Z,72.57
2023-04-30T07:53:57.725Z,73.48
2023-04-30T07:56:25.932Z,76.71
2023-04-30T07:58:55.787Z,70.65
2023-04-30T08:01:24.065Z,65.51
2023-04-30T08:03:52.534Z,62.38
2023-04-30T08:06:20.659Z,59.43
2023-04-30T08:08:50.503Z,56.22
2023-04-30T08:11:19.042Z,52.89
2023-04-30T08:13:47.620Z,48.15
2023-04-30T08:16:17.377Z,54.25
2023-04-30T08:18:46.734Z,51.77
2023-04-30T08:21:14.846Z,52.60
2023-04-30T08:23:42.810Z,50.28
2023-04-30T08:26:10.613Z,49.31
2023-04-30T08:28:38.606Z,51.89
2023-04-30T08:31:06.625Z,59.55
2023-04-30T08:33:36.170Z,53.19
2023-04-30T08:36:04.113Z,51.14
2023-04-30T08:38:32.422Z,47.94
2023-04-30T08:41:06.640Z,45.53
2023-04-30T08:43:35.653Z,48.91
2023-04-30T08:46:04.270Z,48.26
2023-04-30T08:48:33.153Z,47.29
2023-04-30T08:51:03.314Z,46.78
2023-04-30T08:53:32.024Z,45.81
2023-04-30T08:56:00.648Z,44.77
2023-04-30T08:58:28.571Z,45.19
2023-04-30T09:00:59.246Z,44.72
2023-04-30T09:03:27.734Z,46.33
2023-04-30T09:05:57.158Z,48.56
2023-04-30T09:08:42.769Z,46.75
2023-04-30T09:11:28.383Z,45.71
2023-04-30T09:13:57.408Z,45.82
2023-04-30T09:16:26.694Z,46.48
2023-04-30T09:18:55.071Z,44.20
2023-04-30T09:21:33.062Z,44.76
2023-04-30T09:24:02.075Z,46.26
2023-04-30T09:26:34.180Z,47.28
2023-04-30T09:29:08.185Z,46.97
2023-04-30T09:31:37.118Z,48.41
2023-04-30T09:34:06.269Z,48.56
2023-04-30T09:36:34.748Z,48.12
2023-04-30T09:39:14.951Z,48.33
2023-04-30T09:41:44.981Z,44.82
2023-04-30T09:44:27.736Z,46.08
2023-04-30T09:46:56.809Z,44.46
2023-04-30T09:49:25.870Z,42.83
2023-04-30T09:51:57.677Z,43.40
2023-04-30T09:54:27.127Z,44.99
2023-04-30T09:56:58.201Z,44.71
2023-04-30T09:59:30.937Z,43.80
2023-04-30T10:02:00.196Z,44.54
2023-04-30T10:04:29.565Z,42.63
2023-04-30T10:06:59.590Z,42.18
2023-04-30T10:09:31.375Z,42.70
2023-04-30T10:12:02.379Z,41.36
2023-04-30T10:14:34.781Z,37.82
2023-04-30T10:17:07.184Z,38.51
2023-04-30T10:19:37.599Z,37.00
2023-04-30T10:22:06.770Z,37.18
2023-04-30T10:24:36.112Z,35.00
2023-04-30T10:27:06.166Z,32.10
2023-04-30T10:29:34.614Z,34.48
2023-04-30T10:32:05.819Z,32.81
2023-04-30T10:34:39.678Z,32.12
2023-04-30T10:37:09.320Z,31.90
2023-04-30T10:39:39.054Z,34.85
2023-04-30T10:42:11.729Z,32.56
2023-04-30T10:44:40.725Z,31.27
2023-04-30T10:47:09.527Z,33.24
2023-04-30T10:49:39.317Z,37.15
2023-04-30T10:52:07.285Z,34.04
2023-04-30T10:54:37.109Z,35.14
2023-04-30T10:57:14.431Z,34.94
2023-04-30T10:59:47.708Z,29.75
2023-04-30T11:02:18.064Z,27.59
2023-04-30T11:05:05.094Z,28.92
2023-04-30T11:07:32.934Z,29.27
2023-04-30T11:10:02.024Z,29.33
2023-04-30T11:12:31.374Z,31.42
2023-04-30T11:15:01.720Z,33.40
2023-04-30T11:17:29.924Z,34.15
2023-04-30T11:20:00.195Z,34.62
2023-04-30T11:22:30.182Z,36.67
2023-04-30T11:25:05.383Z,31.14
2023-04-30T11:27:35.677Z,32.69
2023-04-30T11:30:05.107Z,28.12
2023-04-30T11:32:34.002Z,24.25
2023-04-30T11:35:02.356Z,24.25
2023-04-30T11:37:32.108Z,28.66
2023-04-30T11:40:01.881Z,24.61
2023-04-30T11:42:31.394Z,19.38
2023-04-30T11:45:08.495Z,19.34
2023-04-30T11:47:40.183Z,18.04
2023-04-30T11:50:08.680Z,18.63
2023-04-30T11:52:36.946Z,22.97
2023-04-30T11:55:09.383Z,22.70
2023-04-30T11:57:41.901Z,23.35
2023-04-30T12:00:13.804Z,25.12
2023-04-30T12:02:42.117Z,24.10
2023-04-30T12:05:14.095Z,28.03
2023-04-30T12:07:46.443Z,26.49
2023-04-30T12:10:14.253Z,21.55
2023-04-30T12:12:43.287Z,21.59
2023-04-30T12:15:18.818Z,22.19
2023-04-30T12:17:47.128Z,21.43
2023-04-30T12:20:16.227Z,18.53
2023-04-30T12:22:44.989Z,21.17
2023-04-30T12:25:14.049Z,23.16
2023-04-30T12:27:42.579Z,21.46
2023-04-30T12:30:10.556Z,20.41
2023-04-30T12:32:41.383Z,21.87
2023-04-30T12:35:10.010Z,22.02
2023-04-30T12:37:37.699Z,20.45
2023-04-30T12:40:08.522Z,21.88
2023-04-30T12:42:37.125Z,20.98
2023-04-30T12:45:05.124Z,23.35
2023-04-30T12:47:33.227Z,24.36
2023-04-30T12:50:02.733Z,23.50
2023-04-30T12:52:30.434Z,25.01
2023-04-30T12:54:58.464Z,25.22
2023-04-30T12:57:26.328Z,27.29
2023-04-30T12:59:58.232Z,26.77
2023-04-30T13:02:27.791Z,26.15
2023-04-30T13:04:55.670Z,24.21
2023-04-30T13:07:24.962Z,21.72
2023-04-30T13:09:53.407Z,18.66
2023-04-30T13:12:24.523Z,19.60
2023-04-30T13:14:53.826Z,20.03
2023-04-30T13:17:22.600Z,17.71
2023-04-30T13:19:50.488Z,19.58
2023-04-30T13:22:18.406Z,20.65
2023-04-30T13:24:48.328Z,25.49
2023-04-30T13:27:16.594Z,29.31
2023-04-30T13:29:44.486Z,32.39
2023-04-30T13:32:12.819Z,32.29
2023-04-30T13:34:40.641Z,31.68
2023-04-30T13:37:08.990Z,27.17
2023-04-30T13:39:37.186Z,23.31
2023-04-30T13:42:06.362Z,25.46
2023-04-30T13:44:34.312Z,24.87
2023-04-30T13:47:02.564Z,26.29
2023-04-30T13:49:30.657Z,24.08
2023-04-30T13:51:58.798Z,19.21
2023-04-30T13:54:26.987Z,16.52
2023-04-30T13:56:55.606Z,17.28
2023-04-30T13:59:26.070Z,17.38
2023-04-30T14:01:53.951Z,21.18
2023-04-30T14:04:22.112Z,24.93
2023-04-30T14:06:50.504Z,26.73
2023-04-30T14:09:18.458Z,29.56
2023-04-30T14:11:46.469Z,32.43
2023-04-30T14:14:14.314Z,31.04
2023-04-30T14:16:44.801Z,28.01
2023-04-30T14:19:12.863Z,28.95
2023-04-30T14:21:40.747Z,29.24
2023-04-30T14:24:08.810Z,29.88
2023-04-30T14:26:37.241Z,32.89
2023-04-30T14:29:05.281Z,31.49
2023-04-30T14:31:33.253Z,32.59
2023-04-30T14:34:02.886Z,33.04
2023-04-30T14:36:32.657Z,32.50
2023-04-30T14:39:00.687Z,33.88
2023-04-30T14:41:28.951Z,31.72
2023-04-30T14:43:57.367Z,30.19
2023-04-30T14:46:25.344Z,29.73
2023-04-30T14:48:54.402Z,29.79
2023-04-30T14:51:24.023Z,29.91
2023-04-30T14:53:51.852Z,28.69
2023-04-30T14:56:20.596Z,26.06
2023-04-30T14:58:49.303Z,23.24
2023-04-30T15:01:18.307Z,21.38
2023-04-30T15:03:47.001Z,22.58
2023-04-30T15:06:15.306Z,27.41
2023-04-30T15:08:44.420Z,30.81
2023-04-30T15:11:13.305Z,33.71
2023-04-30T15:13:40.938Z,34.39
2023-04-30T15:16:08.796Z,33.78
2023-04-30T15:18:37.486Z,34.46
2023-04-30T15:21:05.377Z,33.89
2023-04-30T15:23:33.726Z,33.75
2023-04-30T15:26:03.172Z,32.61
2023-04-30T15:28:31.314Z,28.69
2023-04-30T15:30:59.280Z,30.00
2023-04-30T15:33:29.225Z,31.53
2023-04-30T15:35:57.367Z,32.81
2023-04-30T15:38:25.647Z,34.06
2023-04-30T15:40:53.355Z,35.16
2023-04-30T15:43:22.744Z,35.15
2023-04-30T15:45:50.446Z,35.61
2023-04-30T15:48:18.255Z,34.14
2023-04-30T15:50:45.950Z,33.81
2023-04-30T15:53:13.959Z,31.83
2023-04-30T15:55:41.766Z,30.96
2023-04-30T15:58:09.245Z,27.62
2023-04-30T16:00:38.888Z,24.97
2023-04-30T16:03:07.276Z,22.96
2023-04-30T16:05:38.805Z,24.25
2023-04-30T16:08:06.956Z,26.27
2023-04-30T16:10:34.589Z,27.07
2023-04-30T16:13:02.624Z,28.38
2023-04-30T16:15:30.869Z,30.88
2023-04-30T16:17:59.977Z,30.80
2023-04-30T16:20:28.811Z,31.31
2023-04-30T16:22:56.952Z,31.55
2023-04-30T16:25:24.848Z,32.11
2023-04-30T16:27:53.640Z,32.96
2023-04-30T16:30:21.974Z,32.60
2023-04-30T16:32:49.626Z,30.94
2023-04-30T16:35:20.045Z,32.23
2023-04-30T16:37:48.067Z,33.39
2023-04-30T16:40:16.159Z,34.35
2023-04-30T16:42:45.971Z,35.24
2023-04-30T16:45:14.310Z,36.59
2023-04-30T16:47:43.800Z,37.07
2023-04-30T16:50:11.916Z,37.30
2023-04-30T16:52:41.872Z,38.04
2023-04-30T16:55:10.479Z,38.73
2023-04-30T16:57:38.368Z,38.19
2023-04-30T17:00:09.049Z,38.34
2023-04-30T17:02:38.153Z,37.57
2023-04-30T17:05:10.625Z,36.92
2023-04-30T17:07:40.181Z,36.26
2023-04-30T17:10:11.105Z,37.09
2023-04-30T17:12:39.409Z,36.13
2023-04-30T17:15:08.241Z,36.10
2023-04-30T17:17:37.301Z,35.28
2023-04-30T17:20:06.816Z,34.38
2023-04-30T17:22:36.213Z,34.58
2023-04-30T17:25:04.660Z,34.87
2023-04-30T17:27:36.159Z,37.04
2023-04-30T17:30:04.495Z,37.95
2023-04-30T17:32:33.992Z,39.18
2023-04-30T17:35:03.277Z,39.17
2023-04-30T17:37:31.849Z,39.00
2023-04-30T17:40:00.541Z,39.41
2023-04-30T17:42:28.971Z,39.48
2023-04-30T17:44:58.864Z,39.77
2023-04-30T17:47:27.662Z,39.87
2023-04-30T17:49:56.488Z,39.76
2023-04-30T17:52:26.478Z,40.53
2023-04-30T17:54:54.984Z,40.49
2023-04-30T17:57:23.274Z,41.27
2023-04-30T17:59:51.640Z,42.11
2023-04-30T18:02:21.487Z,42.96
2023-04-30T18:04:50.833Z,43.54
2023-04-30T18:07:19.277Z,43.73
2023-04-30T18:09:47.980Z,45.01
2023-04-30T18:12:16.460Z,45.76
2023-04-30T18:14:44.435Z,46.43
2023-04-30T18:17:12.880Z,47.50
2023-04-30T18:19:44.791Z,47.93
2023-04-30T18:22:13.136Z,48.33
2023-04-30T18:24:41.682Z,49.00
2023-04-30T18:27:10.143Z,49.25
2023-04-30T18:29:38.364Z,49.78
2023-04-30T18:32:06.428Z,50.51
2023-04-30T18:34:35.161Z,51.14
2023-04-30T18:37:04.899Z,52.09
2023-04-30T18:39:33.175Z,52.30
2023-04-30T18:42:02.676Z,52.92
2023-04-30T18:44:32.224Z,53.55
2023-04-30T18:47:00.388Z,54.25
2023-04-30T18:49:29.387Z,55.50
2023-04-30T18:51:58.265Z,56.09
2023-04-30T18:54:28.078Z,55.97
2023-04-30T18:56:56.062Z,56.35
2023-04-30T18:59:24.273Z,56.56
2023-04-30T19:01:52.524Z,56.84
2023-04-30T19:04:20.702Z,57.90
2023-04-30T19:06:50.070Z,58.29
2023-04-30T19:09:18.145Z,58.56
2023-04-30T19:11:47.970Z,58.63
2023-04-30T19:14:16.482Z,59.88
2023-04-30T19:16:44.796Z,60.28
2023-04-30T19:19:13.191Z,61.52
2023-04-30T19:21:41.780Z,62.69
2023-04-30T19:24:10.225Z,64.01
2023-04-30T19:26:38.312Z,66.60
2023-04-30T19:29:07.997Z,67.94
2023-04-30T19:31:36.349Z,68.19
2023-04-30T19:34:04.684Z,69.19
2023-04-30T19:36:36.308Z,68.75
2023-04-30T19:39:07.552Z,69.12
2023-04-30T19:41:36.058Z,69.19
2023-04-30T19:44:04.272Z,69.88
2023-04-30T19:46:39.486Z,70.40
2023-04-30T19:49:08.205Z,70.86
2023-04-30T19:51:36.672Z,71.19
2023-04-30T19:54:04.859Z,72.17
2023-04-30T19:56:32.995Z,72.74
2023-04-30T19:59:00.767Z,72.83
2023-04-30T20:01:29.508Z,73.00
2023-04-30T20:04:00.249Z,73.48
2023-04-30T20:06:28.490Z,73.96
2023-04-30T20:08:58.900Z,75.56
2023-04-30T20:11:27.182Z,76.01
2023-04-30T20:13:55.596Z,76.55
2023-04-30T20:16:24.012Z,76.76
2023-04-30T20:18:52.454Z,78.00
2023-04-30T20:21:25.089Z,78.39
2023-04-30T20:23:54.292Z,79.88
2023-04-30T20:26:24.176Z,81.56
2023-04-30T20:28:52.493Z,82.41
2023-04-30T20:31:21.911Z,83.18
2023-04-30T20:33:50.137Z,84.13
2023-04-30T20:36:18.583Z,85.14
2023-04-30T20:38:48.290Z,85.70
2023-04-30T20:41:16.210Z,86.84
2023-04-30T20:43:44.300Z,87.73
2023-04-30T20:46:14.088Z,87.39
2023-04-30T20:48:42.374Z,86.95
2023-04-30T20:51:11.936Z,87.37
2023-04-30T20:53:40.548Z,86.56
2023-04-30T20:56:12.394Z,85.96
2023-04-30T20:58:40.979Z,86.10
2023-04-30T21:01:09.885Z,86.97
2023-04-30T21:03:38.685Z,87.84
2023-04-30T21:06:07.231Z,89.23
2023-04-30T21:08:35.428Z,89.40
2023-04-30T21:11:04.400Z,89.23
2023-04-30T21:13:34.542Z,89.25
2023-04-30T21:16:05.259Z,88.72
2023-04-30T21:18:34.830Z,88.80
2023-04-30T21:21:03.922Z,89.85
2023-04-30T21:23:32.958Z,89.87
2023-04-30T21:26:01.799Z,89.38
2023-04-30T21:28:30.738Z,89.64
2023-04-30T21:31:04.335Z,89.99
2023-04-30T21:33:34.295Z,89.58
2023-04-30T21:36:01.991Z,89.22
2023-04-30T21:38:30.258Z,89.84
2023-04-30T21:40:58.768Z,90.07
2023-04-30T21:43:27.617Z,89.90
2023-04-30T21:45:56.526Z,90.27
2023-04-30T21:48:26.975Z,89.55
2023-04-30T21:50:55.406Z,88.97
2023-04-30T21:53:23.897Z,89.32
2023-04-30T21:56:07.957Z,89.92
2023-04-30T21:58:39.697Z,89.13
2023-04-30T22:01:08.772Z,89.67
2023-04-30T22:03:40.385Z,90.59
2023-04-30T22:06:09.499Z,91.18
2023-04-30T22:08:37.449Z,91.97
2023-04-30T22:11:05.547Z,93.60
2023-04-30T22:13:34.799Z,95.09
2023-04-30T22:16:03.857Z,96.26
2023-04-30T22:18:32.761Z,97.59
2023-04-30T22:21:02.449Z,98.00
2023-04-30T22:23:30.972Z,97.98
2023-04-30T22:25:59.227Z,98.04
2023-04-30T22:28:27.920Z,97.32
2023-04-30T22:31:00.275Z,98.07
2023-04-30T22:33:28.549Z,97.27
2023-04-30T22:35:56.933Z,96.71
2023-04-30T22:38:29.486Z,96.00
2023-04-30T22:40:58.314Z,97.58
2023-04-30T22:43:27.184Z,98.33
2023-04-30T22:45:55.851Z,99.35
2023-04-30T22:48:23.889Z,99.07
2023-04-30T22:50:52.975Z,98.63
2023-04-30T22:53:21.209Z,99.00
2023-04-30T22:55:51.576Z,97.68
2023-04-30T22:58:19.879Z,95.84
2023-04-30T23:00:50.170Z,95.01
2023-04-30T23:03:18.940Z,92.89
2023-04-30T23:05:52.678Z,91.64
2023-04-30T23:08:21.093Z,90.56
2023-04-30T23:10:55.772Z,89.54
2023-04-30T23:13:25.539Z,87.97
2023-04-30T23:15:53.895Z,87.23
2023-04-30T23:18:24.760Z,85.66
2023-04-30T23:20:53.665Z,83.99
2023-04-30T23:23:21.619Z,82.08
2023-04-30T23:25:49.868Z,80.80
2023-04-30T23:28:20.008Z,80.25
2023-04-30T23:30:51.678Z,79.74
2023-04-30T23:33:21.755Z,79.71
2023-04-30T23:35:49.671Z,80.21
2023-04-30T23:38:17.923Z,79.90
2023-04-30T23:40:46.269Z,79.85
2023-04-30T23:43:14.431Z,80.44
2023-04-30T23:45:43.824Z,81.04
2023-04-30T23:48:12.115Z,81.22
2023-04-30T23:50:40.416Z,82.85
2023-04-30T23:53:10.308Z,83.77
2023-04-30T23:55:41.705Z,84.50
2023-04-30T23:58:10.069Z,84.97
